createdAt,value
2023-04-12T00:00:04.384Z,8.65
2023-04-12T00:02:06.777Z,13.30
2023-04-12T00:04:10.273Z,10.95
2023-04-12T00:06:13.580Z,13.27
2023-04-12T00:08:17.165Z,14.55
2023-04-12T00:10:19.807Z,11.70
2023-04-12T00:12:21.962Z,11.30
2023-04-12T00:14:24.507Z,13.90
2023-04-12T00:16:26.858Z,16.80
2023-04-12T00:18:29.084Z,15.93
2023-04-12T00:20:31.198Z,13.60
2023-04-12T00:22:33.859Z,10.85
2023-04-12T00:24:36.046Z,16.83
2023-04-12T00:26:38.072Z,21.65
2023-04-12T00:28:40.752Z,14.20
2023-04-12T00:30:42.864Z,15.32
2023-04-12T00:32:45.079Z,13.48
2023-04-12T00:34:47.349Z,7.63
2023-04-12T00:36:50.091Z,14.25
2023-04-12T00:38:52.085Z,19.75
2023-04-12T00:40:54.279Z,16.08
2023-04-12T00:42:58.158Z,17.10
2023-04-12T00:45:00.248Z,20.17
2023-04-12T00:47:04.215Z,18.40
2023-04-12T00:49:06.788Z,12.98
2023-04-12T00:51:09.547Z,22.65
2023-04-12T00:53:13.766Z,20.90
2023-04-12T00:55:16.213Z,18.58
2023-04-12T00:57:18.416Z,21.42
2023-04-12T00:59:20.653Z,15.95
2023-04-12T01:01:22.893Z,15.57
2023-04-12T01:03:28.104Z,21.48
2023-04-12T01:05:30.789Z,17.98
2023-04-12T01:07:33.600Z,19.92
2023-04-12T01:09:40.079Z,11.55
2023-04-12T01:11:46.107Z,20.60
2023-04-12T01:13:59.191Z,14.85
2023-04-12T01:16:12.993Z,14.68
2023-04-12T01:18:20.005Z,16.52
2023-04-12T01:20:26.698Z,20.60
2023-04-12T01:22:33.574Z,16.67
2023-04-12T01:24:41.919Z,12.75
2023-04-12T01:26:48.056Z,11.85
2023-04-12T01:28:54.480Z,11.90
2023-04-12T01:30:56.795Z,13.82
2023-04-12T01:33:02.149Z,16.27
2023-04-12T01:35:07.581Z,16.40
2023-04-12T01:37:10.254Z,11.98
2023-04-12T01:39:12.346Z,14.52
2023-04-12T01:41:14.843Z,14.20
2023-04-12T01:43:16.909Z,15.73
2023-04-12T01:45:19.145Z,14.77
2023-04-12T01:47:21.480Z,17.85
2023-04-12T01:49:32.990Z,17.27
2023-04-12T01:51:38.506Z,21.05
2023-04-12T01:53:48.005Z,17.85
2023-04-12T01:55:52.211Z,7.68
2023-04-12T01:57:54.752Z,16.15
2023-04-12T01:59:59.255Z,22.88
2023-04-12T02:02:03.653Z,12.25
2023-04-12T02:04:07.474Z,14.05
2023-04-12T02:06:11.191Z,23.90
2023-04-12T02:08:13.281Z,14.93
2023-04-12T02:10:15.722Z,13.18
2023-04-12T02:12:17.821Z,13.60
2023-04-12T02:14:19.886Z,21.63
2023-04-12T02:16:23.326Z,16.70
2023-04-12T02:18:25.404Z,17.85
2023-04-12T02:20:27.623Z,17.05
2023-04-12T02:22:29.604Z,17.20
2023-04-12T02:24:32.009Z,20.80
2023-04-12T02:26:34.007Z,17.30
2023-04-12T02:28:37.322Z,14.90
2023-04-12T02:30:42.025Z,9.70
2023-04-12T02:32:45.006Z,10.05
2023-04-12T02:34:51.558Z,16.08
2023-04-12T02:36:53.469Z,25.90
2023-04-12T02:38:56.332Z,22.52
2023-04-12T02:40:58.274Z,13.43
2023-04-12T02:43:00.597Z,13.88
2023-04-12T02:45:02.650Z,13.82
2023-04-12T02:47:04.616Z,12.88
2023-04-12T02:49:06.613Z,18.52
2023-04-12T02:51:08.565Z,14.98
2023-04-12T02:53:10.659Z,20.10
2023-04-12T02:55:12.654Z,13.35
2023-04-12T02:57:16.302Z,19.45
2023-04-12T02:59:18.307Z,18.05
2023-04-12T03:01:20.297Z,9.80
2023-04-12T03:03:22.501Z,22.48
2023-04-12T03:05:24.834Z,17.58
2023-04-12T03:07:28.047Z,15.57
2023-04-12T03:09:29.969Z,14.68
2023-04-12T03:11:32.068Z,18.30
2023-04-12T03:13:34.114Z,23.75
2023-04-12T03:15:36.120Z,17.88
2023-04-12T03:17:38.230Z,17.73
2023-04-12T03:19:40.197Z,18.92
2023-04-12T03:21:42.151Z,12.93
2023-04-12T03:23:44.096Z,19.02
2023-04-12T03:25:46.203Z,16.15
2023-04-12T03:27:48.155Z,18.30
2023-04-12T03:29:50.170Z,13.60
2023-04-12T03:31:52.142Z,21.10
2023-04-12T03:33:54.603Z,15.75
2023-04-12T03:35:56.676Z,15.13
2023-04-12T03:37:58.628Z,15.35
2023-04-12T03:40:01.007Z,15.85
2023-04-12T03:42:02.955Z,12.90
2023-04-12T03:44:05.115Z,13.73
2023-04-12T03:46:07.289Z,21.70
2023-04-12T03:48:11.161Z,8.15
2023-04-12T03:50:13.252Z,20.80
2023-04-12T03:52:15.294Z,14.80
2023-04-12T03:54:17.493Z,17.10
2023-04-12T03:56:21.043Z,22.05
2023-04-12T03:58:23.341Z,17.23
2023-04-12T04:00:25.358Z,12.43
2023-04-12T04:02:27.953Z,14.95
2023-04-12T04:04:30.369Z,15.88
2023-04-12T04:06:33.317Z,18.23
2023-04-12T04:08:35.336Z,13.60
2023-04-12T04:10:37.596Z,11.30
2023-04-12T04:12:39.515Z,16.73
2023-04-12T04:14:41.548Z,19.77
2023-04-12T04:16:43.577Z,10.43
2023-04-12T04:18:45.762Z,21.77
2023-04-12T04:20:47.721Z,16.38
2023-04-12T04:22:50.024Z,11.60
2023-04-12T04:24:51.994Z,11.43
2023-04-12T04:26:54.463Z,12.27
2023-04-12T04:28:56.368Z,14.88
2023-04-12T04:31:05.877Z,14.48
2023-04-12T04:33:08.985Z,12.68
2023-04-12T04:35:11.238Z,16.05
2023-04-12T04:37:13.505Z,16.02
2023-04-12T04:39:15.416Z,17.83
2023-04-12T04:41:17.710Z,14.00
2023-04-12T04:43:20.302Z,11.18
2023-04-12T04:45:26.803Z,13.30
2023-04-12T04:47:30.726Z,11.02
2023-04-12T04:49:33.969Z,14.43
2023-04-12T04:51:36.747Z,15.27
2023-04-12T04:53:38.782Z,8.95
2023-04-12T04:55:41.440Z,23.23
2023-04-12T04:57:44.218Z,12.10
2023-04-12T04:59:46.288Z,17.08
2023-04-12T05:01:48.353Z,23.15
2023-04-12T05:03:51.940Z,14.30
2023-04-12T05:05:55.114Z,14.82
2023-04-12T05:07:58.215Z,16.85
2023-04-12T05:10:00.400Z,14.95
2023-04-12T05:12:02.423Z,12.48
2023-04-12T05:14:04.386Z,14.18
2023-04-12T05:16:08.201Z,11.30
2023-04-12T05:18:10.330Z,13.57
2023-04-12T05:20:12.461Z,10.05
2023-04-12T05:22:14.714Z,9.30
2023-04-12T05:24:16.716Z,14.05
2023-04-12T05:26:18.893Z,9.73
2023-04-12T05:28:20.835Z,12.52
2023-04-12T05:30:22.924Z,19.73
2023-04-12T05:32:26.268Z,12.88
2023-04-12T05:34:28.351Z,15.10
2023-04-12T05:36:30.724Z,16.75
2023-04-12T05:38:32.770Z,15.13
2023-04-12T05:40:36.544Z,16.02
2023-04-12T05:42:38.728Z,15.38
2023-04-12T05:44:41.659Z,15.95
2023-04-12T05:46:43.709Z,13.23
2023-04-12T05:48:45.730Z,18.70
2023-04-12T05:50:52.165Z,15.05
2023-04-12T05:52:55.832Z,13.32
2023-04-12T05:54:57.802Z,10.43
2023-04-12T05:56:59.794Z,17.00
2023-04-12T05:59:02.519Z,9.60
2023-04-12T06:01:05.644Z,13.30
2023-04-12T06:03:09.653Z,14.48
2023-04-12T06:05:13.193Z,12.38
2023-04-12T06:07:19.044Z,17.60
2023-04-12T06:09:20.998Z,16.08
2023-04-12T06:11:23.102Z,14.35
2023-04-12T06:13:25.368Z,21.27
2023-04-12T06:15:27.415Z,14.80
2023-04-12T06:17:29.437Z,24.70
2023-04-12T06:19:31.559Z,15.63
2023-04-12T06:21:33.571Z,13.73
2023-04-12T06:23:35.846Z,11.15
2023-04-12T06:25:38.052Z,24.08
2023-04-12T06:27:40.114Z,7.55
2023-04-12T06:29:42.192Z,14.50
2023-04-12T06:31:44.417Z,21.92
2023-04-12T06:33:47.464Z,12.57
2023-04-12T06:35:50.128Z,16.35
2023-04-12T06:37:52.151Z,10.40
2023-04-12T06:39:54.064Z,10.45
2023-04-12T06:41:57.742Z,14.77
2023-04-12T06:43:59.831Z,9.48
2023-04-12T06:46:03.487Z,11.07
2023-04-12T06:48:05.643Z,56.80
2023-04-12T06:50:08.480Z,8.77
2023-04-12T06:52:10.673Z,13.70
2023-04-12T06:54:14.176Z,14.18
2023-04-12T06:56:18.406Z,11.57
2023-04-12T06:58:21.016Z,19.92
2023-04-12T07:00:23.611Z,11.38
2023-04-12T07:02:25.725Z,22.83
2023-04-12T07:04:27.888Z,11.77
2023-04-12T07:06:30.034Z,9.10
2023-04-12T07:08:35.139Z,6.95
2023-04-12T07:10:37.552Z,15.20
2023-04-12T07:12:39.785Z,20.17
2023-04-12T07:14:44.052Z,15.93
2023-04-12T07:16:46.819Z,12.10
2023-04-12T07:18:49.446Z,5.43
2023-04-12T07:20:54.656Z,13.20
2023-04-12T07:22:56.797Z,9.90
2023-04-12T07:24:59.361Z,19.05
2023-04-12T07:27:01.681Z,10.00
2023-04-12T07:29:05.342Z,13.82
2023-04-12T07:31:07.944Z,6.40
2023-04-12T07:33:19.271Z,13.45
2023-04-12T07:35:22.956Z,10.73
2023-04-12T07:37:25.218Z,9.65
2023-04-12T07:39:29.940Z,9.30
2023-04-12T07:41:32.167Z,16.13
2023-04-12T07:43:34.268Z,12.65
2023-04-12T07:45:38.156Z,13.38
2023-04-12T07:47:40.417Z,14.63
2023-04-12T07:49:42.779Z,10.68
2023-04-12T07:51:45.077Z,10.25
2023-04-12T07:53:48.774Z,11.18
2023-04-12T07:55:52.085Z,14.30
2023-04-12T07:57:54.231Z,11.50
2023-04-12T07:59:57.014Z,10.60
2023-04-12T08:01:59.643Z,14.63
2023-04-12T08:04:05.249Z,14.30
2023-04-12T08:06:13.557Z,8.73
2023-04-12T08:08:15.622Z,11.75
2023-04-12T08:10:17.731Z,17.10
2023-04-12T08:12:21.432Z,8.75
2023-04-12T08:14:23.991Z,11.38
2023-04-12T08:16:26.913Z,10.73
2023-04-12T08:18:29.805Z,15.18
2023-04-12T08:20:32.941Z,6.35
2023-04-12T08:22:35.947Z,8.27
2023-04-12T08:24:38.221Z,6.53
2023-04-12T08:26:40.381Z,8.02
2023-04-12T08:28:43.088Z,12.35
2023-04-12T08:30:46.681Z,5.35
2023-04-12T08:32:48.840Z,9.30
2023-04-12T08:34:53.792Z,3.58
2023-04-12T08:37:06.292Z,6.65
2023-04-12T08:39:09.720Z,7.55
2023-04-12T08:41:11.744Z,8.48
2023-04-12T08:43:15.151Z,11.05
2023-04-12T08:45:17.353Z,8.70
2023-04-12T08:47:21.357Z,5.40
2023-04-12T08:49:25.409Z,8.00
2023-04-12T08:51:28.093Z,9.43
2023-04-12T08:53:30.128Z,11.13
2023-04-12T08:55:32.200Z,9.57
2023-04-12T08:57:36.823Z,6.95
2023-04-12T08:59:42.611Z,6.47
2023-04-12T09:01:45.085Z,4.82
2023-04-12T09:03:47.723Z,9.45
2023-04-12T09:05:50.274Z,8.13
2023-04-12T09:07:52.514Z,5.60
2023-04-12T09:09:55.713Z,9.02
2023-04-12T09:12:08.306Z,6.95
2023-04-12T09:14:18.355Z,6.90
2023-04-12T09:16:35.802Z,11.57
2023-04-12T09:18:50.300Z,3.53
2023-04-12T09:21:08.219Z,10.13
2023-04-12T09:23:17.007Z,5.18
2023-04-12T09:25:19.230Z,10.93
2023-04-12T09:27:21.659Z,7.20
2023-04-12T09:29:26.479Z,3.88
2023-04-12T09:31:29.480Z,8.65
2023-04-12T09:33:43.064Z,5.38
2023-04-12T09:35:45.599Z,5.65
2023-04-12T09:37:58.359Z,7.20
2023-04-12T09:40:05.577Z,2.28
2023-04-12T09:42:17.995Z,6.10
2023-04-12T09:44:30.662Z,7.38
2023-04-12T09:46:34.141Z,7.93
2023-04-12T09:48:37.914Z,4.43
2023-04-12T09:50:40.362Z,7.03
2023-04-12T09:52:42.554Z,3.95
2023-04-12T09:54:46.268Z,1.83
2023-04-12T09:56:49.356Z,4.45
2023-04-12T09:58:54.232Z,3.45
2023-04-12T10:01:00.040Z,5.07
2023-04-12T10:03:02.815Z,4.55
2023-04-12T10:05:06.404Z,3.97
2023-04-12T10:07:10.215Z,3.05
2023-04-12T10:09:14.935Z,6.47
2023-04-12T10:11:18.049Z,5.88
2023-04-12T10:13:20.996Z,7.82
2023-04-12T10:15:25.947Z,1.90
2023-04-12T10:17:29.842Z,5.70
2023-04-12T10:19:34.097Z,2.70
2023-04-12T10:21:36.553Z,5.78
2023-04-12T10:23:38.720Z,5.07
2023-04-12T10:25:44.245Z,7.65
2023-04-12T10:27:47.224Z,5.38
2023-04-12T10:29:49.937Z,3.58
2023-04-12T10:31:52.790Z,6.53
2023-04-12T10:33:56.165Z,4.05
2023-04-12T10:36:03.911Z,9.13
2023-04-12T10:38:07.217Z,7.45
2023-04-12T10:40:17.797Z,5.68
2023-04-12T10:42:27.790Z,7.00
2023-04-12T10:44:30.433Z,5.70
2023-04-12T10:46:37.879Z,4.32
2023-04-12T10:48:51.632Z,5.85
2023-04-12T10:51:16.129Z,2.80
2023-04-12T10:53:23.939Z,8.80
2023-04-12T10:55:30.441Z,4.18
2023-04-12T10:57:39.142Z,9.88
2023-04-12T10:59:51.909Z,5.05
2023-04-12T11:02:10.694Z,9.70
2023-04-12T11:04:26.627Z,5.95
2023-04-12T11:06:35.156Z,4.15
2023-04-12T11:08:41.572Z,3.42
2023-04-12T11:10:47.354Z,7.25
2023-04-12T11:12:55.625Z,5.60
2023-04-12T11:15:02.489Z,5.28
2023-04-12T11:17:09.555Z,5.63
2023-04-12T11:19:13.625Z,5.18
2023-04-12T11:21:16.894Z,6.88
2023-04-12T11:23:20.662Z,8.02
2023-04-12T11:25:23.820Z,3.97
2023-04-12T11:27:29.305Z,10.02
2023-04-12T11:29:34.774Z,5.88
2023-04-12T11:31:39.791Z,6.38
2023-04-12T11:33:42.969Z,4.55
2023-04-12T11:35:47.372Z,3.53
2023-04-12T11:37:50.532Z,8.52
2023-04-12T11:39:56.584Z,12.93
2023-04-12T11:41:59.980Z,8.20
2023-04-12T11:44:04.093Z,13.35
2023-04-12T11:46:07.462Z,6.85
2023-04-12T11:48:14.623Z,6.55
2023-04-12T11:50:31.551Z,5.30
2023-04-12T11:52:35.536Z,11.38
2023-04-12T11:54:38.507Z,10.95
2023-04-12T11:56:43.854Z,9.90
2023-04-12T11:58:48.932Z,10.70
2023-04-12T12:00:51.538Z,10.25
2023-04-12T12:03:06.888Z,6.82
2023-04-12T12:05:11.834Z,13.38
2023-04-12T12:07:17.820Z,8.90
2023-04-12T12:09:21.561Z,11.50
2023-04-12T12:11:25.409Z,6.97
2023-04-12T12:13:28.052Z,12.75
2023-04-12T12:15:44.548Z,10.45
2023-04-12T12:17:51.888Z,8.82
2023-04-12T12:19:59.752Z,10.60
2023-04-12T12:22:13.372Z,8.40
2023-04-12T12:24:16.933Z,8.85
2023-04-12T12:26:25.656Z,7.60
2023-04-12T12:28:28.692Z,10.13
2023-04-12T12:30:32.368Z,9.95
2023-04-12T12:32:37.601Z,9.70
2023-04-12T12:34:42.109Z,8.90
2023-04-12T12:36:44.532Z,8.50
2023-04-12T12:38:49.465Z,10.68
2023-04-12T12:40:53.136Z,8.18
2023-04-12T12:42:56.915Z,9.50
2023-04-12T12:44:59.539Z,9.35
2023-04-12T12:47:10.100Z,11.65
2023-04-12T12:49:16.680Z,15.30
2023-04-12T12:51:20.572Z,8.45
2023-04-12T12:53:24.603Z,16.80
2023-04-12T12:55:28.798Z,19.23
2023-04-12T12:57:32.125Z,17.23
2023-04-12T12:59:34.631Z,13.27
2023-04-12T13:01:37.441Z,12.18
2023-04-12T13:03:41.055Z,16.77
2023-04-12T13:05:43.984Z,13.77
2023-04-12T13:07:47.119Z,15.20
2023-04-12T13:09:50.950Z,10.77
2023-04-12T13:11:53.676Z,11.57
2023-04-12T13:13:58.279Z,15.00
2023-04-12T13:16:00.895Z,13.10
2023-04-12T13:18:03.483Z,15.63
2023-04-12T13:20:06.720Z,8.13
2023-04-12T13:22:09.365Z,8.35
2023-04-12T13:24:11.828Z,14.65
2023-04-12T13:26:14.254Z,25.52
2023-04-12T13:28:17.540Z,13.38
2023-04-12T13:30:20.823Z,19.45
2023-04-12T13:32:23.663Z,13.63
2023-04-12T13:34:26.885Z,15.95
2023-04-12T13:36:29.459Z,8.40
2023-04-12T13:38:32.230Z,7.15
2023-04-12T13:40:36.578Z,10.95
2023-04-12T13:42:39.056Z,5.90
2023-04-12T13:44:44.860Z,8.18
2023-04-12T13:46:47.268Z,9.25
2023-04-12T13:48:49.982Z,8.88
2023-04-12T13:50:53.578Z,7.68
2023-04-12T13:52:58.362Z,6.93
2023-04-12T13:55:01.045Z,10.65
2023-04-12T13:57:04.525Z,8.07
2023-04-12T13:59:07.287Z,5.78
2023-04-12T14:01:10.279Z,9.80
2023-04-12T14:03:13.874Z,7.25
2023-04-12T14:05:16.485Z,7.25
2023-04-12T14:07:18.989Z,3.97
2023-04-12T14:09:26.661Z,7.30
2023-04-12T14:11:29.225Z,5.95
2023-04-12T14:13:31.646Z,6.18
2023-04-12T14:15:33.898Z,6.43
2023-04-12T14:17:37.538Z,4.97
2023-04-12T14:19:44.057Z,5.70
2023-04-12T14:21:54.897Z,3.67
2023-04-12T14:26:00.339Z,1.50
2023-04-12T14:28:03.236Z,0.90
2023-04-12T14:30:07.573Z,1.35
2023-04-12T14:32:10.010Z,1.27
2023-04-12T14:34:13.784Z,1.25
2023-04-12T14:36:16.444Z,1.30
2023-04-12T14:38:18.935Z,1.27
2023-04-12T14:40:21.631Z,1.70
2023-04-12T14:42:24.191Z,0.73
2023-04-12T14:44:27.772Z,0.45
2023-04-12T14:46:33.898Z,1.38
2023-04-12T14:48:36.690Z,1.80
2023-04-12T14:50:39.665Z,1.02
2023-04-12T14:52:42.311Z,2.08
2023-04-12T14:54:44.677Z,1.38
2023-04-12T14:56:54.346Z,2.17
2023-04-12T14:58:58.730Z,2.20
2023-04-12T15:01:01.705Z,2.05
2023-04-12T15:03:05.908Z,1.20
2023-04-12T15:05:12.191Z,2.53
2023-04-12T15:07:14.840Z,4.57
2023-04-12T15:09:18.508Z,3.13
2023-04-12T15:11:23.013Z,5.75
2023-04-12T15:13:33.194Z,3.08
2023-04-12T15:15:36.681Z,4.72
2023-04-12T15:17:39.262Z,3.75
2023-04-12T15:19:41.372Z,5.63
2023-04-12T15:21:46.885Z,7.60
2023-04-12T15:23:53.874Z,4.72
2023-04-12T15:26:03.243Z,6.72
2023-04-12T15:28:06.384Z,7.13
2023-04-12T15:30:11.288Z,8.73
2023-04-12T15:32:13.928Z,7.88
2023-04-12T15:34:16.674Z,6.70
2023-04-12T15:36:19.879Z,9.50
2023-04-12T15:38:23.760Z,7.35
2023-04-12T15:40:26.649Z,6.97
2023-04-12T15:42:29.438Z,9.93
2023-04-12T15:44:32.690Z,5.72
2023-04-12T15:46:36.784Z,6.53
2023-04-12T15:48:39.142Z,7.25
2023-04-12T15:50:42.006Z,8.13
2023-04-12T15:52:44.947Z,7.47
2023-04-12T15:54:47.159Z,6.07
2023-04-12T15:56:51.098Z,9.13
2023-04-12T15:58:57.602Z,4.68
2023-04-12T16:01:00.605Z,2.80
2023-04-12T16:03:03.229Z,3.30
2023-04-12T16:05:07.221Z,1.27
2023-04-12T16:07:18.237Z,2.60
2023-04-12T16:09:22.883Z,4.35
2023-04-12T16:11:34.673Z,1.35
2023-04-12T16:13:38.664Z,2.78
2023-04-12T16:15:45.227Z,2.60
2023-04-12T16:17:49.816Z,1.00
2023-04-12T16:19:53.675Z,1.42
2023-04-12T16:22:03.572Z,2.28
2023-04-12T16:24:09.880Z,1.90
2023-04-12T16:26:13.766Z,1.48
2023-04-12T16:28:19.316Z,1.30
2023-04-12T16:30:24.060Z,1.48
2023-04-12T16:32:28.110Z,0.57
2023-04-12T16:34:32.511Z,1.10
2023-04-12T16:36:41.362Z,0.70
2023-04-12T16:38:47.382Z,3.65
2023-04-12T16:40:51.134Z,3.05
2023-04-12T16:42:54.513Z,0.73
2023-04-12T16:44:57.264Z,2.63
2023-04-12T16:47:01.234Z,1.15
2023-04-12T16:49:11.078Z,1.45
2023-04-12T16:51:14.193Z,3.03
2023-04-12T16:53:17.374Z,3.40
2023-04-12T16:55:21.029Z,8.15
2023-04-12T16:57:24.317Z,2.80
2023-04-12T16:59:27.168Z,9.70
2023-04-12T17:01:31.267Z,1.30
2023-04-12T17:06:27.788Z,4.85
2023-04-12T17:08:40.090Z,3.22
2023-04-12T17:11:00.885Z,4.68
2023-04-12T17:13:11.734Z,6.70
2023-04-12T17:17:39.264Z,4.65
2023-04-12T17:19:44.637Z,4.70
2023-04-12T17:21:49.246Z,1.38
2023-04-12T17:23:54.310Z,4.22
2023-04-12T17:26:01.583Z,6.40
2023-04-12T17:28:06.585Z,4.07
2023-04-12T17:30:14.712Z,3.88
2023-04-12T17:32:18.009Z,9.65
2023-04-12T17:39:18.355Z,4.90
2023-04-12T17:41:28.160Z,7.53
2023-04-12T17:43:33.405Z,6.95
2023-04-12T17:46:08.873Z,6.95
2023-04-12T17:48:23.077Z,10.65
2023-04-12T17:50:37.969Z,3.83
2023-04-12T17:52:52.893Z,8.25
2023-04-12T17:59:50.543Z,5.57
2023-04-12T18:02:52.089Z,6.07
2023-04-12T18:07:28.956Z,7.00
2023-04-12T18:09:55.069Z,7.85
2023-04-12T18:12:15.800Z,6.75
2023-04-12T18:14:38.597Z,7.50
2023-04-12T18:17:01.276Z,1.58
2023-04-12T18:19:26.530Z,9.65
2023-04-12T18:22:01.742Z,8.43
2023-04-12T18:24:25.123Z,8.60
2023-04-12T18:26:41.081Z,5.90
2023-04-12T18:28:51.036Z,4.55
2023-04-12T18:30:58.596Z,9.07
2023-04-12T18:35:36.528Z,4.00
2023-04-12T18:40:01.911Z,7.78
2023-04-12T18:42:05.234Z,5.07
2023-04-12T18:44:09.502Z,5.93
2023-04-12T18:46:18.016Z,6.15
2023-04-12T18:48:21.179Z,7.35
2023-04-12T18:50:24.660Z,5.63
2023-04-12T18:52:27.942Z,6.65
2023-04-12T18:54:30.792Z,9.82
2023-04-12T18:56:43.630Z,3.55
2023-04-12T18:58:55.233Z,2.38
2023-04-12T19:01:10.486Z,6.00
2023-04-12T19:03:14.007Z,5.20
2023-04-12T19:05:18.065Z,3.75
2023-04-12T19:07:21.496Z,5.82
2023-04-12T19:09:24.733Z,15.40
2023-04-12T19:11:28.067Z,4.63
2023-04-12T19:13:30.526Z,9.65
2023-04-12T19:15:33.008Z,10.02
2023-04-12T19:17:39.467Z,4.63
2023-04-12T19:19:43.088Z,5.18
2023-04-12T19:21:46.377Z,5.28
2023-04-12T19:23:48.959Z,5.25
2023-04-12T19:25:53.367Z,6.43
2023-04-12T19:27:56.391Z,8.23
2023-04-12T19:29:59.086Z,7.30
2023-04-12T19:32:03.014Z,5.22
2023-04-12T19:34:06.446Z,7.05
2023-04-12T19:36:09.893Z,6.43
2023-04-12T19:38:12.877Z,4.55
2023-04-12T19:40:15.938Z,3.90
2023-04-12T19:42:18.772Z,9.05
2023-04-12T19:44:23.745Z,7.68
2023-04-12T19:46:26.767Z,2.72
2023-04-12T19:48:30.469Z,2.70
2023-04-12T19:50:33.131Z,4.50
2023-04-12T19:52:36.232Z,4.32
2023-04-12T19:54:39.814Z,6.15
2023-04-12T19:56:42.672Z,2.47
2023-04-12T19:58:45.814Z,3.53
2023-04-12T20:00:52.594Z,5.63
2023-04-12T20:02:55.729Z,2.28
2023-04-12T20:05:00.125Z,3.78
2023-04-12T20:07:02.955Z,3.00
2023-04-12T20:09:06.126Z,5.25
2023-04-12T20:11:09.315Z,3.47
2023-04-12T20:13:16.001Z,7.13
2023-04-12T20:15:19.597Z,3.20
2023-04-12T20:17:22.916Z,2.88
2023-04-12T20:19:27.854Z,2.75
2023-04-12T20:21:32.560Z,6.50
2023-04-12T20:23:36.125Z,2.80
2023-04-12T20:25:39.033Z,3.13
2023-04-12T20:27:42.609Z,2.47
2023-04-12T20:29:47.796Z,1.75
2023-04-12T20:31:52.767Z,0.43
2023-04-12T20:33:57.352Z,1.45
2023-04-12T20:36:00.181Z,2.63
2023-04-12T20:38:03.719Z,2.85
2023-04-12T20:40:10.079Z,1.17
2023-04-12T20:42:13.578Z,2.03
2023-04-12T20:44:18.301Z,0.85
2023-04-12T20:46:25.997Z,0.57
2023-04-12T20:48:28.979Z,0.60
2023-04-12T20:50:31.475Z,0.50
2023-04-12T20:52:36.453Z,0.98
2023-04-12T20:54:39.329Z,1.35
2023-04-12T20:56:42.539Z,0.30
2023-04-12T20:58:46.260Z,0.40
2023-04-12T21:00:49.638Z,1.02
2023-04-12T21:02:52.177Z,2.60
2023-04-12T21:04:54.506Z,0.82
2023-04-12T21:06:57.889Z,0.45
2023-04-12T21:09:00.267Z,1.05
2023-04-12T21:11:02.930Z,0.50
2023-04-12T21:13:05.283Z,0.82
2023-04-12T21:15:08.779Z,0.40
2023-04-12T21:17:10.948Z,1.20
2023-04-12T21:19:13.508Z,0.60
2023-04-12T21:21:16.192Z,1.35
2023-04-12T21:23:18.844Z,1.17
2023-04-12T21:25:21.453Z,1.92
2023-04-12T21:27:23.613Z,0.57
2023-04-12T21:29:25.653Z,0.50
2023-04-12T21:31:29.262Z,1.67
2023-04-12T21:33:32.340Z,0.47
2023-04-12T21:35:34.499Z,0.40
2023-04-12T21:37:38.472Z,0.65
2023-04-12T21:39:40.655Z,0.98
2023-04-12T21:41:42.794Z,2.53
2023-04-12T21:43:47.780Z,0.60
2023-04-12T21:45:49.827Z,0.88
2023-04-12T21:47:53.681Z,1.48
2023-04-12T21:49:55.960Z,1.27
2023-04-12T21:51:59.281Z,1.02
2023-04-12T21:54:01.889Z,0.50
2023-04-12T21:56:05.619Z,0.40
2023-04-12T21:58:07.749Z,1.90
2023-04-12T22:00:10.853Z,0.63
2023-04-12T22:02:13.159Z,0.68
2023-04-12T22:04:15.245Z,1.20
2023-04-12T22:06:19.782Z,0.82
2023-04-12T22:08:23.934Z,0.38
2023-04-12T22:10:25.896Z,0.40
2023-04-12T22:12:27.974Z,0.40
2023-04-12T22:14:29.890Z,0.50
2023-04-12T22:16:33.075Z,1.13
2023-04-12T22:18:35.930Z,0.32
2023-04-12T22:20:38.481Z,0.70
2023-04-12T22:22:41.511Z,4.40
2023-04-12T22:24:44.344Z,1.10
2023-04-12T22:26:46.322Z,0.52
2023-04-12T22:28:50.157Z,0.82
2023-04-12T22:30:52.423Z,0.57
2023-04-12T22:32:54.693Z,2.08
2023-04-12T22:35:08.278Z,0.08
2023-04-12T22:37:12.070Z,0.57
2023-04-12T22:39:18.285Z,0.50
2023-04-12T22:41:20.519Z,0.77
2023-04-12T22:43:22.968Z,0.40
2023-04-12T22:45:25.229Z,0.63
2023-04-12T22:47:27.380Z,0.98
2023-04-12T22:49:29.441Z,0.80
2023-04-12T22:51:32.763Z,0.80
2023-04-12T22:53:34.779Z,0.38
2023-04-12T22:55:36.916Z,1.45
2023-04-12T22:57:39.072Z,0.00
2023-04-12T22:59:41.015Z,0.45
2023-04-12T23:01:44.906Z,0.52
2023-04-12T23:03:47.112Z,0.52
2023-04-12T23:05:50.392Z,0.20
2023-04-12T23:07:52.443Z,1.63
2023-04-12T23:09:56.215Z,1.63
2023-04-12T23:11:58.326Z,0.30
2023-04-12T23:14:00.708Z,1.67
2023-04-12T23:16:03.762Z,0.50
2023-04-12T23:18:08.691Z,0.30
2023-04-12T23:20:13.510Z,0.50
2023-04-12T23:22:44.572Z,0.32
2023-04-12T23:24:54.473Z,0.13
2023-04-12T23:26:58.041Z,0.52
2023-04-12T23:29:02.454Z,2.40
2023-04-12T23:31:05.893Z,0.20
2023-04-12T23:33:09.495Z,0.63
2023-04-12T23:35:12.336Z,0.68
2023-04-12T23:37:15.201Z,3.08
2023-04-12T23:39:18.253Z,2.13
2023-04-12T23:41:20.260Z,0.35
2023-04-12T23:43:23.637Z,0.35
2023-04-12T23:45:25.920Z,1.40
2023-04-12T23:47:27.936Z,2.20
2023-04-12T23:49:29.846Z,0.90
2023-04-12T23:51:31.856Z,2.10
2023-04-12T23:53:33.880Z,1.13
2023-04-12T23:55:36.016Z,2.05
2023-04-12T23:57:37.983Z,1.30
2023-04-12T23:59:40.069Z,0.32
